createdAt,value
2022-11-09T00:00:00.962Z,12.30
2022-11-09T00:02:27.982Z,12.30
2022-11-09T00:04:54.649Z,12.30
2022-11-09T00:07:21.354Z,12.30
2022-11-09T00:09:47.999Z,12.30
2022-11-09T00:12:14.685Z,12.30
2022-11-09T00:14:41.557Z,12.30
2022-11-09T00:17:08.198Z,12.30
2022-11-09T00:19:34.809Z,12.30
2022-11-09T00:22:01.465Z,12.30
2022-11-09T00:24:28.082Z,12.30
2022-11-09T00:26:54.709Z,12.30
2022-11-09T00:29:21.346Z,12.20
2022-11-09T00:31:49.634Z,12.20
2022-11-09T00:34:16.365Z,12.20
2022-11-09T00:36:43.014Z,12.20
2022-11-09T00:39:09.682Z,12.10
2022-11-09T00:41:36.555Z,12.10
2022-11-09T00:44:03.315Z,12.10
2022-11-09T00:46:30.148Z,12.10
2022-11-09T00:48:57.187Z,12.10
2022-11-09T00:51:23.978Z,12.10
2022-11-09T00:53:54.241Z,12.10
2022-11-09T00:56:21.528Z,12.10
2022-11-09T00:58:51.973Z,12.00
2022-11-09T01:01:18.886Z,12.00
2022-11-09T01:03:48.599Z,12.00
2022-11-09T01:06:18.031Z,12.00
2022-11-09T01:08:45.663Z,11.90
2022-11-09T01:11:15.350Z,11.90
2022-11-09T01:13:42.114Z,11.90
2022-11-09T01:16:11.991Z,11.90
2022-11-09T01:18:39.374Z,11.90
2022-11-09T01:21:07.997Z,11.90
2022-11-09T01:23:34.974Z,11.90
2022-11-09T01:26:04.822Z,11.90
2022-11-09T01:28:31.658Z,12.00
2022-11-09T01:31:04.753Z,12.00
2022-11-09T01:33:32.654Z,12.00
2022-11-09T01:36:07.166Z,12.00
2022-11-09T01:38:33.897Z,12.00
2022-11-09T01:41:00.806Z,12.10
2022-11-09T01:43:27.690Z,12.10
2022-11-09T01:46:19.372Z,12.10
2022-11-09T01:48:55.767Z,12.20
2022-11-09T01:51:32.890Z,12.20
2022-11-09T01:54:07.534Z,12.20
2022-11-09T01:56:34.493Z,12.20
2022-11-09T01:59:06.003Z,12.30
2022-11-09T02:01:33.599Z,12.30
2022-11-09T02:04:08.842Z,12.30
2022-11-09T02:06:35.484Z,12.30
2022-11-09T02:09:14.509Z,12.30
2022-11-09T02:11:41.243Z,12.30
2022-11-09T02:14:08.147Z,12.30
2022-11-09T02:16:35.157Z,12.30
2022-11-09T02:19:01.878Z,12.30
2022-11-09T02:21:31.861Z,12.30
2022-11-09T02:23:59.948Z,12.40
2022-11-09T02:26:43.949Z,12.30
2022-11-09T02:29:14.414Z,12.40
2022-11-09T02:31:46.414Z,12.40
2022-11-09T02:34:17.868Z,12.40
2022-11-09T02:36:44.666Z,12.40
2022-11-09T02:39:19.428Z,12.40
2022-11-09T02:42:03.566Z,12.50
2022-11-09T02:44:39.465Z,12.50
2022-11-09T02:47:07.835Z,12.50
2022-11-09T02:49:34.728Z,12.50
2022-11-09T02:52:01.409Z,12.40
2022-11-09T02:54:28.891Z,12.40
2022-11-09T02:56:57.623Z,12.40
2022-11-09T02:59:25.235Z,12.40
2022-11-09T03:01:52.314Z,12.30
2022-11-09T03:04:19.113Z,12.30
2022-11-09T03:06:45.861Z,12.30
2022-11-09T03:09:15.850Z,12.30
2022-11-09T03:11:43.270Z,12.30
2022-11-09T03:14:12.167Z,12.30
2022-11-09T03:16:49.129Z,12.30
2022-11-09T03:19:17.058Z,12.30
2022-11-09T03:21:45.302Z,12.40
2022-11-09T03:24:12.020Z,12.40
2022-11-09T03:26:39.898Z,12.40
2022-11-09T03:29:06.723Z,12.40
2022-11-09T03:31:33.826Z,12.40
2022-11-09T03:34:04.147Z,12.40
2022-11-09T03:36:31.226Z,12.40
2022-11-09T03:38:57.993Z,12.30
2022-11-09T03:41:24.940Z,12.30
2022-11-09T03:43:51.542Z,12.40
2022-11-09T03:46:18.156Z,12.30
2022-11-09T03:48:44.751Z,12.30
2022-11-09T03:51:11.331Z,12.30
2022-11-09T03:53:37.960Z,12.30
2022-11-09T03:56:04.720Z,12.30
2022-11-09T03:58:31.741Z,12.30
2022-11-09T04:00:58.526Z,12.30
2022-11-09T04:03:25.167Z,12.30
2022-11-09T04:05:51.784Z,12.20
2022-11-09T04:08:18.477Z,12.20
2022-11-09T04:10:45.433Z,12.30
2022-11-09T04:13:12.083Z,12.20
2022-11-09T04:15:38.726Z,12.20
2022-11-09T04:18:05.394Z,12.10
2022-11-09T04:20:32.283Z,12.10
2022-11-09T04:23:02.800Z,12.10
2022-11-09T04:25:33.210Z,12.00
2022-11-09T04:28:01.056Z,12.00
2022-11-09T04:30:29.316Z,12.00
2022-11-09T04:32:57.099Z,12.00
2022-11-09T04:35:24.797Z,12.00
2022-11-09T04:37:56.255Z,12.00
2022-11-09T04:40:24.422Z,12.00
2022-11-09T04:42:51.166Z,12.00
2022-11-09T04:45:18.076Z,12.00
2022-11-09T04:47:44.701Z,11.90
2022-11-09T04:50:11.441Z,11.90
2022-11-09T04:52:38.317Z,11.90
2022-11-09T04:55:05.815Z,11.90
2022-11-09T04:57:32.414Z,11.90
2022-11-09T04:59:59.025Z,11.80
2022-11-09T05:02:25.671Z,11.80
2022-11-09T05:04:52.314Z,11.80
2022-11-09T05:07:19.004Z,11.80
2022-11-09T05:09:45.654Z,11.80
2022-11-09T05:12:12.873Z,11.80
2022-11-09T05:14:39.482Z,11.80
2022-11-09T05:17:06.641Z,11.80
2022-11-09T05:19:33.230Z,11.80
2022-11-09T05:22:19.879Z,11.80
2022-11-09T05:24:46.538Z,11.80
2022-11-09T05:27:13.149Z,11.70
2022-11-09T05:29:39.813Z,11.70
2022-11-09T05:32:06.432Z,11.70
2022-11-09T05:34:33.093Z,11.70
2022-11-09T05:37:03.529Z,11.70
2022-11-09T05:39:30.466Z,11.70
2022-11-09T05:41:57.112Z,11.70
2022-11-09T05:44:23.923Z,11.70
2022-11-09T05:46:50.542Z,11.70
2022-11-09T05:49:17.138Z,11.70
2022-11-09T05:51:43.752Z,11.70
2022-11-09T05:54:10.415Z,11.70
2022-11-09T05:56:37.156Z,11.70
2022-11-09T05:59:03.775Z,11.70
2022-11-09T06:01:30.345Z,11.80
2022-11-09T06:03:57.088Z,11.80
2022-11-09T06:06:23.717Z,11.80
2022-11-09T06:08:50.695Z,11.80
2022-11-09T06:11:23.533Z,11.70
2022-11-09T06:13:52.261Z,11.70
2022-11-09T06:16:18.882Z,11.70
2022-11-09T06:18:45.792Z,11.70
2022-11-09T06:21:12.787Z,11.70
2022-11-09T06:23:39.414Z,11.70
2022-11-09T06:26:09.395Z,11.60
2022-11-09T06:28:41.254Z,11.60
2022-11-09T06:31:12.672Z,11.60
2022-11-09T06:33:39.315Z,11.60
2022-11-09T06:36:06.122Z,11.60
2022-11-09T06:38:33.555Z,11.60
2022-11-09T06:41:00.633Z,11.60
2022-11-09T06:43:28.359Z,11.70
2022-11-09T06:45:55.430Z,11.70
2022-11-09T06:48:22.480Z,11.80
2022-11-09T06:50:49.225Z,11.80
2022-11-09T06:53:17.140Z,11.80
2022-11-09T06:55:49.111Z,11.80
2022-11-09T06:58:16.949Z,11.80
2022-11-09T07:00:44.502Z,11.80
2022-11-09T07:03:15.672Z,11.80
2022-11-09T07:05:42.636Z,11.80
2022-11-09T07:08:09.495Z,11.80
2022-11-09T07:10:36.301Z,11.80
2022-11-09T07:13:03.361Z,11.90
2022-11-09T07:15:30.190Z,11.90
2022-11-09T07:18:00.862Z,11.90
2022-11-09T07:20:28.336Z,12.00
2022-11-09T07:22:55.370Z,12.00
2022-11-09T07:25:22.741Z,12.00
2022-11-09T07:27:49.428Z,12.00
2022-11-09T07:30:16.345Z,12.10
2022-11-09T07:35:30.156Z,12.10
2022-11-09T07:38:01.297Z,12.10
2022-11-09T07:40:28.368Z,12.20
2022-11-09T07:42:59.018Z,12.20
2022-11-09T07:45:27.924Z,12.30
2022-11-09T07:48:00.182Z,12.30
2022-11-09T07:50:28.137Z,12.30
2022-11-09T07:52:56.290Z,12.30
2022-11-09T07:55:23.702Z,12.30
2022-11-09T07:57:58.637Z,12.30
2022-11-09T08:00:26.211Z,12.30
2022-11-09T08:02:53.338Z,12.20
2022-11-09T08:05:19.969Z,12.10
2022-11-09T08:07:52.797Z,12.10
2022-11-09T08:13:19.217Z,12.10
2022-11-09T08:15:47.458Z,12.10
2022-11-09T08:18:17.448Z,12.20
2022-11-09T08:20:44.689Z,12.30
2022-11-09T08:23:16.093Z,12.20
2022-11-09T08:25:43.054Z,12.30
2022-11-09T08:28:14.523Z,12.30
2022-11-09T08:30:43.196Z,12.20
2022-11-09T08:33:10.334Z,12.10
2022-11-09T08:35:37.406Z,11.90
2022-11-09T08:38:05.421Z,11.80
2022-11-09T08:40:33.780Z,11.80
2022-11-09T08:43:02.867Z,11.80
2022-11-09T08:45:32.460Z,11.70
2022-11-09T08:47:59.910Z,11.70
2022-11-09T08:50:28.263Z,11.70
2022-11-09T08:52:55.585Z,11.60
2022-11-09T08:55:22.590Z,11.70
2022-11-09T08:57:49.305Z,11.70
2022-11-09T09:00:16.336Z,11.80
2022-11-09T09:02:42.996Z,11.80
2022-11-09T09:05:09.715Z,11.80
2022-11-09T09:07:36.574Z,11.90
2022-11-09T09:10:04.400Z,12.00
2022-11-09T09:12:31.423Z,12.00
2022-11-09T09:14:58.217Z,12.00
2022-11-09T09:17:25.219Z,12.10
2022-11-09T09:19:51.845Z,12.00
2022-11-09T09:22:19.622Z,12.00
2022-11-09T09:24:46.562Z,12.00
2022-11-09T09:27:13.223Z,12.10
2022-11-09T09:29:40.009Z,12.00
2022-11-09T09:32:06.659Z,11.90
2022-11-09T09:34:33.301Z,11.80
2022-11-09T09:37:00.049Z,11.70
2022-11-09T09:39:26.741Z,11.70
2022-11-09T09:41:59.717Z,11.70
2022-11-09T09:44:34.753Z,11.70
2022-11-09T09:47:15.340Z,11.70
2022-11-09T09:49:49.162Z,11.80
2022-11-09T09:52:22.323Z,12.00
2022-11-09T09:55:05.065Z,12.20
2022-11-09T09:57:39.006Z,12.50
2022-11-09T10:00:16.522Z,12.60
2022-11-09T10:02:43.344Z,12.80
2022-11-09T10:05:14.909Z,13.10
2022-11-09T10:08:06.337Z,13.30
2022-11-09T10:10:54.212Z,13.30
2022-11-09T10:13:48.472Z,13.40
2022-11-09T10:16:32.178Z,13.40
2022-11-09T10:19:48.664Z,13.50
2022-11-09T10:22:30.394Z,13.30
2022-11-09T10:25:23.614Z,13.30
2022-11-09T10:28:14.409Z,13.30
2022-11-09T10:30:41.785Z,13.30
2022-11-09T10:33:11.762Z,13.50
2022-11-09T10:36:06.849Z,13.50
2022-11-09T10:38:44.965Z,13.70
2022-11-09T10:41:39.948Z,13.80
2022-11-09T10:44:25.061Z,14.00
2022-11-09T10:47:14.117Z,14.30
2022-11-09T10:50:07.262Z,14.60
2022-11-09T10:52:52.829Z,14.50
2022-11-09T10:55:49.143Z,14.40
2022-11-09T10:58:45.093Z,14.40
2022-11-09T11:01:36.571Z,14.60
2022-11-09T11:04:25.145Z,14.90
2022-11-09T11:07:19.745Z,15.00
2022-11-09T11:10:26.494Z,15.00
2022-11-09T11:13:22.137Z,14.70
2022-11-09T11:16:28.752Z,14.70
2022-11-09T11:19:46.078Z,14.60
2022-11-09T11:22:31.147Z,14.40
2022-11-09T11:25:24.846Z,14.40
2022-11-09T11:28:21.669Z,14.40
2022-11-09T11:31:14.824Z,14.60
2022-11-09T11:34:01.514Z,14.70
2022-11-09T11:37:00.169Z,14.90
2022-11-09T11:40:07.682Z,15.10
2022-11-09T11:43:02.876Z,14.90
2022-11-09T11:46:10.836Z,14.60
2022-11-09T11:48:56.013Z,14.30
2022-11-09T11:51:57.533Z,14.10
2022-11-09T11:54:58.170Z,14.10
2022-11-09T11:58:07.926Z,14.10
2022-11-09T12:01:12.375Z,14.10
2022-11-09T12:04:11.714Z,14.00
2022-11-09T12:07:08.085Z,14.10
2022-11-09T12:10:14.510Z,14.30
2022-11-09T12:12:59.676Z,14.40
2022-11-09T12:15:59.751Z,14.50
2022-11-09T12:19:13.072Z,14.50
2022-11-09T12:22:12.682Z,14.50
2022-11-09T12:25:13.674Z,14.40
2022-11-09T12:28:25.501Z,14.30
2022-11-09T12:31:24.246Z,14.30
2022-11-09T12:34:23.333Z,14.30
2022-11-09T12:37:20.329Z,14.10
2022-11-09T12:40:22.077Z,14.10
2022-11-09T12:43:19.847Z,14.10
2022-11-09T12:46:06.512Z,13.90
2022-11-09T12:48:53.237Z,13.90
2022-11-09T12:51:38.500Z,13.80
2022-11-09T12:54:24.586Z,13.80
2022-11-09T12:57:13.155Z,13.70
2022-11-09T13:00:00.494Z,13.80
2022-11-09T13:02:57.777Z,13.90
2022-11-09T13:05:44.784Z,13.90
2022-11-09T13:08:31.923Z,14.00
2022-11-09T13:11:27.324Z,14.00
2022-11-09T13:14:30.949Z,13.90
2022-11-09T13:17:28.453Z,13.80
2022-11-09T13:23:59.989Z,13.80
2022-11-09T13:26:46.086Z,13.90
2022-11-09T13:29:40.306Z,13.80
2022-11-09T13:32:32.999Z,13.80
2022-11-09T13:35:48.034Z,13.70
2022-11-09T13:38:34.493Z,13.70
2022-11-09T13:41:32.115Z,13.60
2022-11-09T13:44:22.753Z,13.70
2022-11-09T13:47:27.644Z,13.70
2022-11-09T13:50:22.467Z,13.80
2022-11-09T13:53:36.688Z,13.70
2022-11-09T13:56:27.997Z,13.80
2022-11-09T13:59:16.437Z,13.70
2022-11-09T14:02:02.543Z,13.80
2022-11-09T14:04:48.037Z,13.70
2022-11-09T14:07:35.243Z,13.70
2022-11-09T14:10:38.180Z,13.70
2022-11-09T14:13:29.405Z,13.60
2022-11-09T14:16:28.621Z,13.60
2022-11-09T14:19:38.845Z,13.60
2022-11-09T14:22:24.158Z,13.60
2022-11-09T14:25:18.105Z,13.60
2022-11-09T14:28:23.059Z,13.60
2022-11-09T14:31:29.353Z,13.60
2022-11-09T14:34:18.065Z,13.60
2022-11-09T14:37:06.119Z,13.50
2022-11-09T14:39:53.877Z,13.50
2022-11-09T14:42:44.939Z,13.40
2022-11-09T14:45:31.428Z,13.30
2022-11-09T14:48:21.228Z,13.30
2022-11-09T14:51:11.948Z,13.30
2022-11-09T14:53:59.109Z,13.20
2022-11-09T14:56:46.095Z,13.20
2022-11-09T14:59:33.692Z,13.10
2022-11-09T15:02:21.705Z,13.10
2022-11-09T15:05:07.734Z,13.10
2022-11-09T15:07:52.922Z,13.00
2022-11-09T15:10:38.439Z,13.00
2022-11-09T15:13:36.329Z,13.00
2022-11-09T15:16:28.334Z,13.00
2022-11-09T15:19:34.263Z,13.00
2022-11-09T15:22:38.232Z,13.00
2022-11-09T15:25:25.431Z,12.90
2022-11-09T15:28:13.471Z,12.80
2022-11-09T15:31:01.624Z,12.80
2022-11-09T15:33:52.055Z,12.70
2022-11-09T15:36:38.932Z,12.60
2022-11-09T15:39:26.458Z,12.60
2022-11-09T15:42:12.541Z,12.50
2022-11-09T15:44:59.361Z,12.50
2022-11-09T15:47:54.537Z,12.50
2022-11-09T15:50:41.058Z,12.50
2022-11-09T15:53:26.398Z,12.40
2022-11-09T15:56:23.173Z,12.40
2022-11-09T15:59:19.102Z,12.50
2022-11-09T16:02:04.615Z,12.60
2022-11-09T16:04:49.926Z,12.50
2022-11-09T16:07:35.443Z,12.50
2022-11-09T16:10:23.056Z,12.40
2022-11-09T16:13:10.169Z,12.40
2022-11-09T16:16:02.929Z,12.40
2022-11-09T16:18:47.966Z,12.40
2022-11-09T16:21:33.345Z,12.40
2022-11-09T16:24:18.585Z,12.30
2022-11-09T16:27:12.490Z,12.30
2022-11-09T16:30:08.851Z,12.40
2022-11-09T16:32:55.475Z,12.30
2022-11-09T16:35:41.018Z,12.40
2022-11-09T16:38:30.223Z,12.40
2022-11-09T16:41:16.350Z,12.50
2022-11-09T16:44:03.642Z,12.50
2022-11-09T16:46:49.038Z,12.40
2022-11-09T16:49:34.879Z,12.50
2022-11-09T16:52:20.229Z,12.50
2022-11-09T16:55:07.620Z,12.50
2022-11-09T16:57:53.597Z,12.50
2022-11-09T17:01:04.531Z,12.50
2022-11-09T17:03:49.419Z,12.50
2022-11-09T17:06:35.280Z,12.60
2022-11-09T17:09:20.804Z,12.50
2022-11-09T17:12:06.289Z,12.50
2022-11-09T17:14:51.917Z,12.50
2022-11-09T17:17:37.329Z,12.40
2022-11-09T17:20:22.689Z,12.40
2022-11-09T17:23:09.069Z,12.40
2022-11-09T17:25:59.543Z,12.40
2022-11-09T17:28:45.162Z,12.50
2022-11-09T17:31:30.502Z,12.50
2022-11-09T17:34:16.050Z,12.40
2022-11-09T17:37:04.862Z,12.40
2022-11-09T17:39:50.873Z,12.40
2022-11-09T17:42:36.743Z,12.30
2022-11-09T17:45:21.928Z,12.30
2022-11-09T17:48:07.349Z,12.20
2022-11-09T17:50:52.665Z,12.20
2022-11-09T17:53:38.417Z,12.20
2022-11-09T17:56:24.081Z,12.10
2022-11-09T17:59:09.606Z,12.00
2022-11-09T18:01:56.177Z,12.00
2022-11-09T18:04:41.497Z,11.90
2022-11-09T18:07:27.641Z,11.90
2022-11-09T18:10:13.033Z,11.80
2022-11-09T18:12:58.335Z,11.80
2022-11-09T18:15:43.638Z,11.80
2022-11-09T18:18:29.148Z,11.80
2022-11-09T18:21:19.490Z,11.90
2022-11-09T18:24:06.167Z,11.80
2022-11-09T18:26:51.834Z,11.80
2022-11-09T18:29:37.321Z,11.80
2022-11-09T18:32:22.861Z,11.70
2022-11-09T18:35:08.449Z,11.60
2022-11-09T18:37:53.783Z,11.60
2022-11-09T18:40:39.266Z,11.50
2022-11-09T18:43:24.545Z,11.50
2022-11-09T18:46:12.654Z,11.50
2022-11-09T18:48:57.673Z,11.40
2022-11-09T18:51:43.210Z,11.50
2022-11-09T18:54:28.609Z,11.50
2022-11-09T18:57:19.462Z,11.40
2022-11-09T19:00:05.429Z,11.40
2022-11-09T19:02:51.007Z,11.40
2022-11-09T19:05:39.824Z,11.40
2022-11-09T19:08:44.159Z,11.40
2022-11-09T19:11:32.232Z,11.40
2022-11-09T19:14:17.429Z,11.40
2022-11-09T19:17:02.342Z,11.40
2022-11-09T19:19:47.749Z,11.40
2022-11-09T19:22:36.537Z,11.40
2022-11-09T19:25:21.826Z,11.30
2022-11-09T19:28:07.457Z,11.40
2022-11-09T19:30:52.522Z,11.30
2022-11-09T19:33:37.876Z,11.30
2022-11-09T19:36:30.964Z,11.30
2022-11-09T19:39:17.501Z,11.30
2022-11-09T19:42:02.957Z,11.20
2022-11-09T19:44:53.524Z,11.20
2022-11-09T19:47:41.322Z,11.10
2022-11-09T19:50:26.610Z,11.10
2022-11-09T19:53:12.068Z,11.10
2022-11-09T19:56:04.166Z,11.10
2022-11-09T19:58:55.264Z,11.10
2022-11-09T20:01:40.946Z,11.10
2022-11-09T20:04:26.470Z,11.10
2022-11-09T20:07:12.087Z,11.10
2022-11-09T20:09:57.761Z,11.10
2022-11-09T20:12:49.333Z,11.00
2022-11-09T20:15:34.642Z,11.10
2022-11-09T20:18:23.419Z,11.10
2022-11-09T20:21:09.034Z,11.10
2022-11-09T20:23:54.402Z,11.00
2022-11-09T20:26:40.544Z,11.00
2022-11-09T20:29:25.833Z,11.00
2022-11-09T20:32:12.495Z,11.00
2022-11-09T20:34:57.703Z,11.00
2022-11-09T20:37:42.788Z,11.00
2022-11-09T20:40:28.195Z,10.90
2022-11-09T20:43:13.223Z,10.80
2022-11-09T20:46:05.688Z,10.80
2022-11-09T20:48:54.890Z,10.70
2022-11-09T20:51:40.533Z,10.80
2022-11-09T20:54:25.978Z,10.70
2022-11-09T20:57:11.328Z,10.70
2022-11-09T20:59:56.239Z,10.70
2022-11-09T21:02:42.987Z,10.70
2022-11-09T21:05:28.250Z,10.60
2022-11-09T21:08:13.533Z,10.70
2022-11-09T21:11:06.589Z,10.60
2022-11-09T21:13:53.193Z,10.60
2022-11-09T21:16:40.031Z,10.70
2022-11-09T21:19:25.534Z,10.70
2022-11-09T21:22:11.365Z,10.70
2022-11-09T21:25:14.847Z,10.60
2022-11-09T21:28:19.522Z,10.60
2022-11-09T21:31:05.638Z,10.60
2022-11-09T21:33:53.112Z,10.50
2022-11-09T21:36:38.471Z,10.50
2022-11-09T21:39:23.818Z,10.40
2022-11-09T21:42:13.135Z,10.30
2022-11-09T21:44:58.238Z,10.30
2022-11-09T21:47:43.483Z,10.30
2022-11-09T21:50:28.831Z,10.30
2022-11-09T21:53:14.008Z,10.20
2022-11-09T21:55:59.812Z,10.20
2022-11-09T21:58:49.344Z,10.20
2022-11-09T22:01:34.667Z,10.30
2022-11-09T22:04:20.085Z,10.30
2022-11-09T22:07:05.496Z,10.30
2022-11-09T22:10:09.566Z,10.40
2022-11-09T22:13:14.246Z,10.30
2022-11-09T22:16:06.593Z,10.30
2022-11-09T22:19:11.316Z,10.30
2022-11-09T22:21:56.928Z,10.40
2022-11-09T22:24:43.254Z,10.40
2022-11-09T22:27:31.210Z,10.40
2022-11-09T22:30:16.802Z,10.40
2022-11-09T22:33:02.670Z,10.40
2022-11-09T22:35:58.825Z,10.40
2022-11-09T22:38:44.997Z,10.30
2022-11-09T22:41:30.005Z,10.30
2022-11-09T22:44:15.428Z,10.30
2022-11-09T22:47:00.845Z,10.30
2022-11-09T22:49:46.006Z,10.30
2022-11-09T22:52:31.258Z,10.40
2022-11-09T22:55:18.185Z,10.40
2022-11-09T22:58:03.566Z,10.40
2022-11-09T23:00:49.320Z,10.50
2022-11-09T23:03:35.121Z,10.50
2022-11-09T23:06:23.206Z,10.50
2022-11-09T23:09:08.194Z,10.60
2022-11-09T23:11:53.177Z,10.60
2022-11-09T23:14:56.945Z,10.60
2022-11-09T23:18:01.008Z,10.60
2022-11-09T23:20:46.313Z,10.60
2022-11-09T23:23:31.890Z,10.60
2022-11-09T23:26:17.392Z,10.60
2022-11-09T23:29:02.708Z,10.60
2022-11-09T23:31:47.998Z,10.60
2022-11-09T23:34:33.271Z,10.60
2022-11-09T23:37:18.633Z,10.60
2022-11-09T23:40:04.412Z,10.70
2022-11-09T23:42:49.684Z,10.60
2022-11-09T23:45:36.974Z,10.60
2022-11-09T23:48:22.218Z,10.60
2022-11-09T23:51:08.155Z,10.70
2022-11-09T23:53:53.512Z,10.70
2022-11-09T23:56:38.821Z,10.60
2022-11-09T23:59:24.037Z,10.70
